sensor_id;sensor_type;location;lat;lon;timestamp;pressure;altitude;pressure_sealevel;temperature;humidity
7670;BME280;3877;42.562;27.636;2023-09-19T00:00:21;101966.44;;;21.86;100.00
7670;BME280;3877;42.562;27.636;2023-09-19T00:02:54;101962.88;;;21.89;100.00
7670;BME280;3877;42.562;27.636;2023-09-19T00:05:25;101959.19;;;21.89;100.00
7670;BME280;3877;42.562;27.636;2023-09-19T00:07:54;101956.75;;;21.91;100.00
7670;BME280;3877;42.562;27.636;2023-09-19T00:10:22;101947.00;;;21.92;100.00
7670;BME280;3877;42.562;27.636;2023-09-19T00:12:52;101954.13;;;21.98;100.00
7670;BME280;3877;42.562;27.636;2023-09-19T00:15:21;101948.78;;;21.96;100.00
7670;BME280;3877;42.562;27.636;2023-09-19T00:17:48;101944.72;;;21.97;100.00
7670;BME280;3877;42.562;27.636;2023-09-19T00:20:18;101935.72;;;21.95;100.00
7670;BME280;3877;42.562;27.636;2023-09-19T00:22:48;101937.00;;;21.98;100.00
7670;BME280;3877;42.562;27.636;2023-09-19T00:25:17;101948.97;;;22.03;100.00
7670;BME280;3877;42.562;27.636;2023-09-19T00:27:44;101944.44;;;22.02;100.00
7670;BME280;3877;42.562;27.636;2023-09-19T00:30:17;101892.69;;;21.69;100.00
7670;BME280;3877;42.562;27.636;2023-09-19T00:32:50;101941.88;;;21.97;100.00
7670;BME280;3877;42.562;27.636;2023-09-19T00:35:20;101939.38;;;21.96;100.00
7670;BME280;3877;42.562;27.636;2023-09-19T00:37:49;101923.84;;;21.93;100.00
7670;BME280;3877;42.562;27.636;2023-09-19T00:40:17;101938.84;;;21.90;100.00
7670;BME280;3877;42.562;27.636;2023-09-19T00:42:44;101932.41;;;21.93;100.00
7670;BME280;3877;42.562;27.636;2023-09-19T00:45:14;101929.19;;;21.95;100.00
7670;BME280;3877;42.562;27.636;2023-09-19T00:47:46;101929.66;;;21.81;100.00
7670;BME280;3877;42.562;27.636;2023-09-19T00:50:16;101925.59;;;21.82;100.00
7670;BME280;3877;42.562;27.636;2023-09-19T00:52:46;101931.28;;;21.82;100.00
7670;BME280;3877;42.562;27.636;2023-09-19T00:55:16;101896.56;;;21.61;100.00
7670;BME280;3877;42.562;27.636;2023-09-19T00:57:45;101929.56;;;21.77;100.00
7670;BME280;3877;42.562;27.636;2023-09-19T01:00:15;101929.00;;;21.72;100.00
7670;BME280;3877;42.562;27.636;2023-09-19T01:02:47;101903.09;;;21.61;100.00
7670;BME280;3877;42.562;27.636;2023-09-19T01:05:14;101932.53;;;21.65;100.00
7670;BME280;3877;42.562;27.636;2023-09-19T01:07:42;101935.75;;;21.64;100.00
7670;BME280;3877;42.562;27.636;2023-09-19T01:10:13;101932.13;;;21.67;100.00
7670;BME280;3877;42.562;27.636;2023-09-19T01:12:50;101929.41;;;21.70;100.00
7670;BME280;3877;42.562;27.636;2023-09-19T01:15:25;101931.41;;;21.70;100.00
7670;BME280;3877;42.562;27.636;2023-09-19T01:18:07;101915.03;;;21.67;100.00
7670;BME280;3877;42.562;27.636;2023-09-19T01:20:41;101917.31;;;21.77;100.00
7670;BME280;3877;42.562;27.636;2023-09-19T01:23:17;101924.75;;;21.81;100.00
7670;BME280;3877;42.562;27.636;2023-09-19T01:26:18;101913.44;;;21.85;100.00
7670;BME280;3877;42.562;27.636;2023-09-19T01:29:12;101933.13;;;21.90;100.00
7670;BME280;3877;42.562;27.636;2023-09-19T01:31:47;101919.66;;;21.91;100.00
7670;BME280;3877;42.562;27.636;2023-09-19T01:34:16;101930.66;;;21.89;100.00
7670;BME280;3877;42.562;27.636;2023-09-19T01:36:44;101927.44;;;21.90;100.00
7670;BME280;3877;42.562;27.636;2023-09-19T01:39:12;101921.25;;;21.88;100.00
7670;BME280;3877;42.562;27.636;2023-09-19T01:41:56;101910.13;;;21.83;100.00
7670;BME280;3877;42.562;27.636;2023-09-19T01:44:40;101922.00;;;21.85;100.00
7670;BME280;3877;42.562;27.636;2023-09-19T01:47:19;101920.78;;;21.86;100.00
7670;BME280;3877;42.562;27.636;2023-09-19T01:49:55;101924.09;;;21.88;100.00
7670;BME280;3877;42.562;27.636;2023-09-19T01:52:28;101917.22;;;21.89;100.00
7670;BME280;3877;42.562;27.636;2023-09-19T01:55:04;101919.22;;;21.89;100.00
7670;BME280;3877;42.562;27.636;2023-09-19T01:57:35;101924.75;;;21.97;100.00
7670;BME280;3877;42.562;27.636;2023-09-19T02:00:11;101915.19;;;21.90;100.00
7670;BME280;3877;42.562;27.636;2023-09-19T02:02:45;101918.31;;;21.85;100.00
7670;BME280;3877;42.562;27.636;2023-09-19T02:05:22;101925.13;;;21.96;100.00
7670;BME280;3877;42.562;27.636;2023-09-19T02:07:50;101914.28;;;21.86;100.00
7670;BME280;3877;42.562;27.636;2023-09-19T02:10:18;101918.63;;;21.95;100.00
7670;BME280;3877;42.562;27.636;2023-09-19T02:12:45;101922.66;;;21.94;100.00
7670;BME280;3877;42.562;27.636;2023-09-19T02:15:13;101924.09;;;21.88;100.00
7670;BME280;3877;42.562;27.636;2023-09-19T02:17:43;101931.66;;;21.96;100.00
7670;BME280;3877;42.562;27.636;2023-09-19T02:20:12;101930.72;;;21.92;100.00
7670;BME280;3877;42.562;27.636;2023-09-19T02:22:39;101914.34;;;21.89;100.00
7670;BME280;3877;42.562;27.636;2023-09-19T02:25:07;101920.06;;;21.89;100.00
7670;BME280;3877;42.562;27.636;2023-09-19T02:27:34;101919.16;;;21.85;100.00
7670;BME280;3877;42.562;27.636;2023-09-19T02:30:02;101925.59;;;21.82;100.00
7670;BME280;3877;42.562;27.636;2023-09-19T02:32:29;101929.66;;;21.81;100.00
7670;BME280;3877;42.562;27.636;2023-09-19T02:35:03;101915.75;;;21.79;100.00
7670;BME280;3877;42.562;27.636;2023-09-19T02:37:31;101918.97;;;21.78;100.00
7670;BME280;3877;42.562;27.636;2023-09-19T02:40:00;101922.00;;;21.85;100.00
7670;BME280;3877;42.562;27.636;2023-09-19T02:42:30;101913.44;;;21.85;100.00
7670;BME280;3877;42.562;27.636;2023-09-19T02:44:57;101911.03;;;21.87;100.00
7670;BME280;3877;42.562;27.636;2023-09-19T02:47:25;101916.75;;;21.87;100.00
7670;BME280;3877;42.562;27.636;2023-09-19T02:49:54;101904.28;;;21.76;100.00
7670;BME280;3877;42.562;27.636;2023-09-19T02:52:23;101915.53;;;21.88;100.00
7670;BME280;3877;42.562;27.636;2023-09-19T02:54:50;101921.63;;;21.87;100.00
7670;BME280;3877;42.562;27.636;2023-09-19T02:57:18;101911.31;;;21.82;100.00
7670;BME280;3877;42.562;27.636;2023-09-19T02:59:45;101905.91;;;21.77;100.00
7670;BME280;3877;42.562;27.636;2023-09-19T03:02:13;101910.41;;;21.78;100.00
7670;BME280;3877;42.562;27.636;2023-09-19T03:04:42;101916.41;;;21.73;100.00
7670;BME280;3877;42.562;27.636;2023-09-19T03:07:10;101895.38;;;21.62;100.00
7670;BME280;3877;42.562;27.636;2023-09-19T03:09:39;101902.44;;;21.68;100.00
7670;BME280;3877;42.562;27.636;2023-09-19T03:12:06;101901.03;;;21.77;100.00
7670;BME280;3877;42.562;27.636;2023-09-19T03:14:34;101906.84;;;21.81;100.00
7670;BME280;3877;42.562;27.636;2023-09-19T03:17:01;101905.91;;;21.77;100.00
7670;BME280;3877;42.562;27.636;2023-09-19T03:19:30;101903.97;;;21.81;100.00
7670;BME280;3877;42.562;27.636;2023-09-19T03:21:58;101908.09;;;21.83;100.00
7670;BME280;3877;42.562;27.636;2023-09-19T03:24:26;101913.84;;;21.68;100.00
7670;BME280;3877;42.562;27.636;2023-09-19T03:26:56;101909.97;;;21.76;100.00
7670;BME280;3877;42.562;27.636;2023-09-19T03:29:23;101906.66;;;21.74;100.00
7670;BME280;3877;42.562;27.636;2023-09-19T03:31:51;101904.91;;;21.69;100.00
7670;BME280;3877;42.562;27.636;2023-09-19T03:34:20;101907.59;;;21.62;100.00
7670;BME280;3877;42.562;27.636;2023-09-19T03:36:47;101920.50;;;21.56;100.00
7670;BME280;3877;42.562;27.636;2023-09-19T03:39:15;101918.47;;;21.57;100.00
7670;BME280;3877;42.562;27.636;2023-09-19T03:41:42;101915.91;;;21.52;100.00
7670;BME280;3877;42.562;27.636;2023-09-19T03:44:12;101897.53;;;21.33;100.00
7670;BME280;3877;42.562;27.636;2023-09-19T03:46:39;101921.50;;;21.48;100.00
7670;BME280;3877;42.562;27.636;2023-09-19T03:49:06;101922.31;;;21.49;100.00
7670;BME280;3877;42.562;27.636;2023-09-19T03:51:34;101925.66;;;21.51;100.00
7670;BME280;3877;42.562;27.636;2023-09-19T03:54:03;101927.31;;;21.52;100.00
7670;BME280;3877;42.562;27.636;2023-09-19T03:56:30;101933.72;;;21.49;100.00
7670;BME280;3877;42.562;27.636;2023-09-19T03:58:58;101932.25;;;21.55;100.00
7670;BME280;3877;42.562;27.636;2023-09-19T04:01:27;101927.38;;;21.55;100.00
7670;BME280;3877;42.562;27.636;2023-09-19T04:03:56;101931.28;;;21.47;100.00
7670;BME280;3877;42.562;27.636;2023-09-19T04:06:23;101929.69;;;21.50;100.00
7670;BME280;3877;42.562;27.636;2023-09-19T04:08:52;101930.16;;;21.52;100.00
7670;BME280;3877;42.562;27.636;2023-09-19T04:11:20;101921.75;;;21.59;100.00
7670;BME280;3877;42.562;27.636;2023-09-19T04:13:47;101937.13;;;21.54;100.00
7670;BME280;3877;42.562;27.636;2023-09-19T04:16:14;101930.59;;;21.54;100.00
7670;BME280;3877;42.562;27.636;2023-09-19T04:18:43;101850.22;;;21.01;100.00
7670;BME280;3877;42.562;27.636;2023-09-19T04:21:11;101934.63;;;21.53;100.00
7670;BME280;3877;42.562;27.636;2023-09-19T04:23:38;101934.75;;;21.56;100.00
7670;BME280;3877;42.562;27.636;2023-09-19T04:26:05;101939.25;;;21.57;100.00
7670;BME280;3877;42.562;27.636;2023-09-19T04:28:33;101935.75;;;21.64;100.00
7670;BME280;3877;42.562;27.636;2023-09-19T04:31:04;101931.69;;;21.80;100.00
7670;BME280;3877;42.562;27.636;2023-09-19T04:33:33;101923.34;;;21.91;100.00
7670;BME280;3877;42.562;27.636;2023-09-19T04:36:02;101919.94;;;22.01;100.00
7670;BME280;3877;42.562;27.636;2023-09-19T04:38:31;101922.22;;;22.11;100.00
7670;BME280;3877;42.562;27.636;2023-09-19T04:40:58;101922.16;;;22.08;100.00
7670;BME280;3877;42.562;27.636;2023-09-19T04:43:26;101889.78;;;22.19;100.00
7670;BME280;3877;42.562;27.636;2023-09-19T04:45:54;101909.88;;;23.03;100.00
7670;BME280;3877;42.562;27.636;2023-09-19T04:48:21;101903.56;;;23.40;100.00
7670;BME280;3877;42.562;27.636;2023-09-19T04:50:50;101820.53;;;23.59;100.00
7670;BME280;3877;42.562;27.636;2023-09-19T04:53:19;101898.44;;;24.28;100.00
7670;BME280;3877;42.562;27.636;2023-09-19T04:55:50;101892.38;;;24.07;100.00
7670;BME280;3877;42.562;27.636;2023-09-19T04:58:18;101895.91;;;24.23;100.00
7670;BME280;3877;42.562;27.636;2023-09-19T05:00:46;101896.31;;;24.58;100.00
7670;BME280;3877;42.562;27.636;2023-09-19T05:03:13;101880.78;;;24.59;100.00
7670;BME280;3877;42.562;27.636;2023-09-19T05:05:41;101895.19;;;24.66;100.00
7670;BME280;3877;42.562;27.636;2023-09-19T05:08:08;101899.53;;;24.20;100.00
7670;BME280;3877;42.562;27.636;2023-09-19T05:10:37;101895.00;;;24.19;100.00
7670;BME280;3877;42.562;27.636;2023-09-19T05:13:05;101904.22;;;24.68;100.00
7670;BME280;3877;42.562;27.636;2023-09-19T05:15:33;101900.00;;;24.25;100.00
7670;BME280;3877;42.562;27.636;2023-09-19T05:18:01;101896.53;;;24.13;100.00
7670;BME280;3877;42.562;27.636;2023-09-19T05:20:29;101891.38;;;23.95;100.00
7670;BME280;3877;42.562;27.636;2023-09-19T05:22:59;101895.56;;;24.28;100.00
7670;BME280;3877;42.562;27.636;2023-09-19T05:25:28;101894.09;;;24.15;100.00
7670;BME280;3877;42.562;27.636;2023-09-19T05:27:58;101898.19;;;24.14;100.00
7670;BME280;3877;42.562;27.636;2023-09-19T05:30:29;101890.00;;;24.42;100.00
7670;BME280;3877;42.562;27.636;2023-09-19T05:32:56;101893.78;;;24.50;100.00
7670;BME280;3877;42.562;27.636;2023-09-19T05:35:24;101890.66;;;24.02;100.00
7670;BME280;3877;42.562;27.636;2023-09-19T05:37:52;101905.06;;;23.79;100.00
7670;BME280;3877;42.562;27.636;2023-09-19T05:40:21;101897.56;;;23.97;100.00
7670;BME280;3877;42.562;27.636;2023-09-19T05:42:49;101889.38;;;23.70;100.00
7670;BME280;3877;42.562;27.636;2023-09-19T05:45:18;101895.25;;;23.54;100.00
7670;BME280;3877;42.562;27.636;2023-09-19T05:47:48;101892.28;;;23.47;100.00
7670;BME280;3877;42.562;27.636;2023-09-19T05:50:15;101888.88;;;23.64;100.00
7670;BME280;3877;42.562;27.636;2023-09-19T05:52:51;101899.00;;;23.58;100.00
7670;BME280;3877;42.562;27.636;2023-09-19T05:55:18;101887.97;;;23.86;100.00
7670;BME280;3877;42.562;27.636;2023-09-19T05:57:49;101889.78;;;23.98;100.00
7670;BME280;3877;42.562;27.636;2023-09-19T06:00:19;101886.63;;;24.07;100.00
7670;BME280;3877;42.562;27.636;2023-09-19T06:02:50;101893.81;;;23.93;100.00
7670;BME280;3877;42.562;27.636;2023-09-19T06:05:18;101885.28;;;23.97;100.00
7670;BME280;3877;42.562;27.636;2023-09-19T06:07:45;101881.16;;;23.94;100.00
7670;BME280;3877;42.562;27.636;2023-09-19T06:10:13;101880.72;;;23.92;100.00
7670;BME280;3877;42.562;27.636;2023-09-19T06:12:40;101895.56;;;24.02;100.00
7670;BME280;3877;42.562;27.636;2023-09-19T06:15:10;101871.63;;;23.87;100.00
7670;BME280;3877;42.562;27.636;2023-09-19T06:17:42;101891.53;;;24.06;100.00
7670;BME280;3877;42.562;27.636;2023-09-19T06:20:10;101893.22;;;24.11;100.00
7670;BME280;3877;42.562;27.636;2023-09-19T06:22:41;101895.41;;;24.17;100.00
7670;BME280;3877;42.562;27.636;2023-09-19T06:25:09;101886.97;;;24.28;100.00
7670;BME280;3877;42.562;27.636;2023-09-19T06:27:38;101888.19;;;24.27;100.00
7670;BME280;3877;42.562;27.636;2023-09-19T06:30:08;101892.94;;;24.49;100.00
7670;BME280;3877;42.562;27.636;2023-09-19T06:32:37;101869.22;;;24.52;100.00
7670;BME280;3877;42.562;27.636;2023-09-19T06:35:06;101888.19;;;24.60;100.00
7670;BME280;3877;42.562;27.636;2023-09-19T06:37:36;101889.06;;;24.68;100.00
7670;BME280;3877;42.562;27.636;2023-09-19T06:40:06;101812.50;;;24.28;100.00
7670;BME280;3877;42.562;27.636;2023-09-19T06:42:34;101883.53;;;24.85;100.00
7670;BME280;3877;42.562;27.636;2023-09-19T06:45:04;101864.47;;;24.63;100.00
7670;BME280;3877;42.562;27.636;2023-09-19T06:47:31;101902.69;;;24.78;100.00
7670;BME280;3877;42.562;27.636;2023-09-19T06:49:59;101909.34;;;24.52;100.00
7670;BME280;3877;42.562;27.636;2023-09-19T06:52:29;101906.06;;;24.50;100.00
7670;BME280;3877;42.562;27.636;2023-09-19T06:54:57;101908.66;;;24.62;100.00
7670;BME280;3877;42.562;27.636;2023-09-19T06:57:25;101903.88;;;24.73;100.00
7670;BME280;3877;42.562;27.636;2023-09-19T06:59:52;101914.63;;;24.83;100.00
7670;BME280;3877;42.562;27.636;2023-09-19T07:02:19;101924.66;;;24.67;100.00
7670;BME280;3877;42.562;27.636;2023-09-19T07:04:47;101920.28;;;24.76;100.00
7670;BME280;3877;42.562;27.636;2023-09-19T07:07:15;101921.03;;;24.70;100.00
7670;BME280;3877;42.562;27.636;2023-09-19T07:09:44;101917.19;;;24.89;100.00
7670;BME280;3877;42.562;27.636;2023-09-19T07:12:11;101913.63;;;24.99;100.00
7670;BME280;3877;42.562;27.636;2023-09-19T07:14:38;101838.25;;;24.61;100.00
7670;BME280;3877;42.562;27.636;2023-09-19T07:17:06;101913.06;;;25.26;100.00
7670;BME280;3877;42.562;27.636;2023-09-19T07:19:33;101923.34;;;25.31;100.00
7670;BME280;3877;42.562;27.636;2023-09-19T07:22:00;101919.41;;;25.50;100.00
7670;BME280;3877;42.562;27.636;2023-09-19T07:24:28;101922.28;;;25.50;100.00
7670;BME280;3877;42.562;27.636;2023-09-19T07:26:58;101922.66;;;25.48;100.00
7670;BME280;3877;42.562;27.636;2023-09-19T07:29:25;101920.59;;;25.45;100.00
7670;BME280;3877;42.562;27.636;2023-09-19T07:31:53;101923.03;;;25.43;100.00
7670;BME280;3877;42.562;27.636;2023-09-19T07:34:20;101916.06;;;25.44;100.00
7670;BME280;3877;42.562;27.636;2023-09-19T07:36:49;101883.19;;;25.31;100.00
7670;BME280;3877;42.562;27.636;2023-09-19T07:39:16;101922.53;;;25.31;100.00
7670;BME280;3877;42.562;27.636;2023-09-19T07:41:43;101922.16;;;25.36;100.00
7670;BME280;3877;42.562;27.636;2023-09-19T07:44:12;101922.91;;;25.29;100.00
7670;BME280;3877;42.562;27.636;2023-09-19T07:46:39;101888.06;;;25.27;100.00
7670;BME280;3877;42.562;27.636;2023-09-19T07:49:07;101925.16;;;25.53;100.00
7670;BME280;3877;42.562;27.636;2023-09-19T07:51:34;101922.03;;;25.65;100.00
7670;BME280;3877;42.562;27.636;2023-09-19T07:54:01;101909.59;;;25.51;100.00
7670;BME280;3877;42.562;27.636;2023-09-19T07:56:29;101887.34;;;25.37;100.00
7670;BME280;3877;42.562;27.636;2023-09-19T07:58:57;101917.44;;;25.57;100.00
7670;BME280;3877;42.562;27.636;2023-09-19T08:01:26;101910.78;;;26.01;100.00
7670;BME280;3877;42.562;27.636;2023-09-19T08:03:54;101903.81;;;26.02;100.00
7670;BME280;3877;42.562;27.636;2023-09-19T08:06:21;101914.94;;;26.07;100.00
7670;BME280;3877;42.562;27.636;2023-09-19T08:08:50;101919.69;;;25.82;100.00
7670;BME280;3877;42.562;27.636;2023-09-19T08:11:19;101916.88;;;25.89;100.00
7670;BME280;3877;42.562;27.636;2023-09-19T08:13:47;101911.69;;;26.19;100.00
7670;BME280;3877;42.562;27.636;2023-09-19T08:16:14;101907.75;;;26.45;100.00
7670;BME280;3877;42.562;27.636;2023-09-19T08:18:47;101911.91;;;26.51;100.00
7670;BME280;3877;42.562;27.636;2023-09-19T08:21:14;101883.56;;;26.56;100.00
7670;BME280;3877;42.562;27.636;2023-09-19T08:23:41;101907.81;;;26.55;100.00
7670;BME280;3877;42.562;27.636;2023-09-19T08:26:09;101908.22;;;26.54;100.00
7670;BME280;3877;42.562;27.636;2023-09-19T08:28:36;101909.47;;;26.71;100.00
7670;BME280;3877;42.562;27.636;2023-09-19T08:31:07;101904.59;;;26.82;100.00
7670;BME280;3877;42.562;27.636;2023-09-19T08:33:36;101897.41;;;26.26;100.00
7670;BME280;3877;42.562;27.636;2023-09-19T08:36:06;101894.53;;;26.26;100.00
7670;BME280;3877;42.562;27.636;2023-09-19T08:38:35;101898.63;;;26.25;100.00
7670;BME280;3877;42.562;27.636;2023-09-19T08:41:06;101892.97;;;26.39;100.00
7670;BME280;3877;42.562;27.636;2023-09-19T08:43:34;101873.94;;;26.17;100.00
7670;BME280;3877;42.562;27.636;2023-09-19T08:46:09;101890.47;;;26.34;100.00
7670;BME280;3877;42.562;27.636;2023-09-19T08:48:39;101884.78;;;26.48;100.00
7670;BME280;3877;42.562;27.636;2023-09-19T08:51:18;101876.59;;;26.58;100.00
7670;BME280;3877;42.562;27.636;2023-09-19T08:53:51;101880.69;;;26.56;100.00
7670;BME280;3877;42.562;27.636;2023-09-19T08:56:18;101880.63;;;26.32;100.00
7670;BME280;3877;42.562;27.636;2023-09-19T08:58:51;101887.88;;;26.08;100.00
7670;BME280;3877;42.562;27.636;2023-09-19T09:01:21;101887.03;;;26.11;100.00
7670;BME280;3877;42.562;27.636;2023-09-19T09:03:51;101882.22;;;26.26;100.00
7670;BME280;3877;42.562;27.636;2023-09-19T09:06:21;101876.53;;;26.36;100.00
7670;BME280;3877;42.562;27.636;2023-09-19T09:08:50;101869.19;;;26.46;100.00
7670;BME280;3877;42.562;27.636;2023-09-19T09:11:18;101874.06;;;26.35;100.00
7670;BME280;3877;42.562;27.636;2023-09-19T09:13:46;101877.38;;;26.40;100.00
7670;BME280;3877;42.562;27.636;2023-09-19T09:16:13;101869.56;;;26.44;100.00
7670;BME280;3877;42.562;27.636;2023-09-19T09:18:44;101861.00;;;26.51;100.00
7670;BME280;3877;42.562;27.636;2023-09-19T09:21:12;101820.66;;;26.23;100.00
7670;BME280;3877;42.562;27.636;2023-09-19T09:23:42;101862.63;;;26.49;100.00
7670;BME280;3877;42.562;27.636;2023-09-19T09:26:10;101865.53;;;26.56;100.00
7670;BME280;3877;42.562;27.636;2023-09-19T09:28:44;101865.09;;;26.50;100.00
7670;BME280;3877;42.562;27.636;2023-09-19T09:31:22;101856.06;;;26.55;100.00
7670;BME280;3877;42.562;27.636;2023-09-19T09:33:53;101853.63;;;26.72;100.00
7670;BME280;3877;42.562;27.636;2023-09-19T09:36:34;101850.38;;;26.73;100.00
7670;BME280;3877;42.562;27.636;2023-09-19T09:39:04;101854.47;;;26.76;100.00
7670;BME280;3877;42.562;27.636;2023-09-19T09:41:42;101849.63;;;26.94;100.00
7670;BME280;3877;42.562;27.636;2023-09-19T09:44:13;101856.03;;;26.48;100.00
7670;BME280;3877;42.562;27.636;2023-09-19T09:46:43;101855.28;;;26.73;100.00
7670;BME280;3877;42.562;27.636;2023-09-19T09:49:30;101849.97;;;26.85;100.00
7670;BME280;3877;42.562;27.636;2023-09-19T09:52:01;101858.56;;;26.71;100.00
7670;BME280;3877;42.562;27.636;2023-09-19T09:54:35;101856.91;;;26.60;100.00
7670;BME280;3877;42.562;27.636;2023-09-19T09:57:04;101846.25;;;26.81;100.00
7670;BME280;3877;42.562;27.636;2023-09-19T10:00:00;101848.72;;;26.76;100.00
7670;BME280;3877;42.562;27.636;2023-09-19T10:02:42;101841.72;;;26.63;100.00
7670;BME280;3877;42.562;27.636;2023-09-19T10:05:13;101841.31;;;26.61;100.00
7670;BME280;3877;42.562;27.636;2023-09-19T10:07:47;101833.53;;;26.79;100.00
7670;BME280;3877;42.562;27.636;2023-09-19T10:10:30;101834.00;;;26.95;100.00
7670;BME280;3877;42.562;27.636;2023-09-19T10:13:10;101837.28;;;26.97;100.00
7670;BME280;3877;42.562;27.636;2023-09-19T10:15:42;101831.06;;;26.77;100.00
7670;BME280;3877;42.562;27.636;2023-09-19T10:18:20;101834.75;;;26.71;100.00
7670;BME280;3877;42.562;27.636;2023-09-19T10:20:48;101831.88;;;26.67;100.00
7670;BME280;3877;42.562;27.636;2023-09-19T10:23:18;101831.47;;;26.76;100.00
7670;BME280;3877;42.562;27.636;2023-09-19T10:25:50;101815.06;;;26.80;100.00
7670;BME280;3877;42.562;27.636;2023-09-19T10:28:19;101808.50;;;26.79;100.00
7670;BME280;3877;42.562;27.636;2023-09-19T10:30:48;101807.66;;;26.82;100.00
7670;BME280;3877;42.562;27.636;2023-09-19T10:33:17;101803.13;;;26.71;100.00
7670;BME280;3877;42.562;27.636;2023-09-19T10:35:47;101797.34;;;26.49;100.00
7670;BME280;3877;42.562;27.636;2023-09-19T10:38:17;101781.78;;;26.72;100.00
7670;BME280;3877;42.562;27.636;2023-09-19T10:40:50;101792.03;;;26.62;100.00
7670;BME280;3877;42.562;27.636;2023-09-19T10:43:20;101793.25;;;26.50;100.00
7670;BME280;3877;42.562;27.636;2023-09-19T10:45:49;101767.78;;;26.52;100.00
7670;BME280;3877;42.562;27.636;2023-09-19T10:48:19;101792.03;;;26.66;100.00
7670;BME280;3877;42.562;27.636;2023-09-19T10:50:53;101786.28;;;26.62;100.00
7670;BME280;3877;42.562;27.636;2023-09-19T10:53:26;101764.44;;;26.29;100.00
7670;BME280;3877;42.562;27.636;2023-09-19T10:55:57;101782.91;;;26.21;100.00
7670;BME280;3877;42.562;27.636;2023-09-19T10:58:27;101788.69;;;26.35;100.00
7670;BME280;3877;42.562;27.636;2023-09-19T11:00:57;101782.19;;;26.56;100.00
7670;BME280;3877;42.562;27.636;2023-09-19T11:03:31;101769.44;;;26.46;100.00
7670;BME280;3877;42.562;27.636;2023-09-19T11:06:03;101770.66;;;26.67;100.00
7670;BME280;3877;42.562;27.636;2023-09-19T11:08:30;101770.22;;;26.40;100.00
7670;BME280;3877;42.562;27.636;2023-09-19T11:11:00;101765.72;;;26.49;100.00
7670;BME280;3877;42.562;27.636;2023-09-19T11:13:30;101764.94;;;26.74;100.00
7670;BME280;3877;42.562;27.636;2023-09-19T11:16:04;101764.53;;;26.65;100.00
7670;BME280;3877;42.562;27.636;2023-09-19T11:19:02;101758.34;;;26.80;100.00
7670;BME280;3877;42.562;27.636;2023-09-19T11:21:53;101756.78;;;26.93;100.00
7670;BME280;3877;42.562;27.636;2023-09-19T11:24:29;101752.66;;;26.91;100.00
7670;BME280;3877;42.562;27.636;2023-09-19T11:27:13;101749.34;;;26.99;100.00
7670;BME280;3877;42.562;27.636;2023-09-19T11:29:42;101746.09;;;26.94;100.00
7670;BME280;3877;42.562;27.636;2023-09-19T11:32:10;101747.72;;;26.95;100.00
7670;BME280;3877;42.562;27.636;2023-09-19T11:34:45;101753.44;;;26.81;100.00
7670;BME280;3877;42.562;27.636;2023-09-19T11:40:37;101746.84;;;26.63;100.00
7670;BME280;3877;42.562;27.636;2023-09-19T11:43:33;101755.09;;;26.82;100.00
7670;BME280;3877;42.562;27.636;2023-09-19T11:46:05;101751.84;;;26.94;100.00
7670;BME280;3877;42.562;27.636;2023-09-19T11:48:32;101750.59;;;27.02;100.00
7670;BME280;3877;42.562;27.636;2023-09-19T11:51:00;101748.56;;;26.99;100.00
7670;BME280;3877;42.562;27.636;2023-09-19T11:53:33;101739.50;;;26.86;100.00
7670;BME280;3877;42.562;27.636;2023-09-19T11:56:04;101740.31;;;26.87;100.00
7670;BME280;3877;42.562;27.636;2023-09-19T11:58:37;101735.41;;;26.91;100.00
7670;BME280;3877;42.562;27.636;2023-09-19T12:01:05;101734.19;;;26.99;100.00
7670;BME280;3877;42.562;27.636;2023-09-19T12:03:42;101743.19;;;27.15;100.00
7670;BME280;3877;42.562;27.636;2023-09-19T12:06:12;101730.44;;;27.16;100.00
7670;BME280;3877;42.562;27.636;2023-09-19T12:08:41;101731.31;;;26.99;100.00
7670;BME280;3877;42.562;27.636;2023-09-19T12:11:13;101727.19;;;27.04;100.00
7670;BME280;3877;42.562;27.636;2023-09-19T12:13:43;101725.13;;;27.08;100.00
7670;BME280;3877;42.562;27.636;2023-09-19T12:16:15;101722.22;;;27.04;100.00
7670;BME280;3877;42.562;27.636;2023-09-19T12:18:44;101718.94;;;26.95;100.00
7670;BME280;3877;42.562;27.636;2023-09-19T12:21:26;101708.28;;;26.64;100.00
7670;BME280;3877;42.562;27.636;2023-09-19T12:23:59;101710.31;;;26.74;100.00
7670;BME280;3877;42.562;27.636;2023-09-19T12:26:27;101715.63;;;26.61;100.00
7670;BME280;3877;42.562;27.636;2023-09-19T12:28:56;101715.66;;;26.72;100.00
7670;BME280;3877;42.562;27.636;2023-09-19T12:31:24;101716.91;;;26.92;100.00
7670;BME280;3877;42.562;27.636;2023-09-19T12:33:55;101720.19;;;27.01;100.00
7670;BME280;3877;42.562;27.636;2023-09-19T12:36:24;101722.22;;;26.76;100.00
7670;BME280;3877;42.562;27.636;2023-09-19T12:38:56;101710.72;;;26.54;100.00
7670;BME280;3877;42.562;27.636;2023-09-19T12:41:25;101712.38;;;26.55;100.00
7670;BME280;3877;42.562;27.636;2023-09-19T12:43:53;101708.22;;;26.28;100.00
7670;BME280;3877;42.562;27.636;2023-09-19T12:46:23;101722.22;;;26.40;100.00
7670;BME280;3877;42.562;27.636;2023-09-19T12:49:15;101706.59;;;26.31;100.00
7670;BME280;3877;42.562;27.636;2023-09-19T12:51:44;101709.88;;;26.40;100.00
7670;BME280;3877;42.562;27.636;2023-09-19T12:54:12;101709.03;;;26.22;100.00
7670;BME280;3877;42.562;27.636;2023-09-19T12:56:42;101711.13;;;26.32;100.00
7670;BME280;3877;42.562;27.636;2023-09-19T12:59:12;101668.78;;;26.11;100.00
7670;BME280;3877;42.562;27.636;2023-09-19T13:01:42;101707.34;;;26.17;100.00
7670;BME280;3877;42.562;27.636;2023-09-19T13:04:13;101710.69;;;26.26;100.00
7670;BME280;3877;42.562;27.636;2023-09-19T13:06:44;101704.13;;;26.26;100.00
7670;BME280;3877;42.562;27.636;2023-09-19T13:09:14;101707.41;;;26.38;100.00